sensor_id;sensor_type;location;lat;lon;timestamp;pressure;altitude;pressure_sealevel;temperature;humidity
25510;BME280;13413;52.336;21.200;2022-11-15T00:01:58;100928.55;;;9.57;66.94
25510;BME280;13413;52.336;21.200;2022-11-15T00:05:19;100926.30;;;9.55;67.15
25510;BME280;13413;52.336;21.200;2022-11-15T00:08:38;100924.68;;;9.57;67.17
25510;BME280;13413;52.336;21.200;2022-11-15T00:11:59;100918.33;;;9.44;67.46
25510;BME280;13413;52.336;21.200;2022-11-15T00:15:21;100914.92;;;9.44;67.36
25510;BME280;13413;52.336;21.200;2022-11-15T00:18:40;100911.67;;;9.48;67.40
25510;BME280;13413;52.336;21.200;2022-11-15T00:22:00;100909.31;;;9.51;67.38
25510;BME280;13413;52.336;21.200;2022-11-15T00:28:39;100895.36;;;9.47;67.72
25510;BME280;13413;52.336;21.200;2022-11-15T00:32:00;100894.73;;;9.50;67.70
25510;BME280;13413;52.336;21.200;2022-11-15T00:35:19;100890.79;;;9.54;67.57
25510;BME280;13413;52.336;21.200;2022-11-15T00:38:41;100883.77;;;9.53;67.58
25510;BME280;13413;52.336;21.200;2022-11-15T00:42:01;100881.17;;;9.51;67.73
25510;BME280;13413;52.336;21.200;2022-11-15T00:45:20;100871.52;;;9.54;67.76
25510;BME280;13413;52.336;21.200;2022-11-15T00:48:40;100861.84;;;9.49;67.73
25510;BME280;13413;52.336;21.200;2022-11-15T00:51:59;100859.84;;;9.49;67.87
25510;BME280;13413;52.336;21.200;2022-11-15T00:55:19;100854.47;;;9.46;68.08
25510;BME280;13413;52.336;21.200;2022-11-15T00:58:40;100845.19;;;9.46;67.94
25510;BME280;13413;52.336;21.200;2022-11-15T01:02:00;100846.46;;;9.47;68.06
25510;BME280;13413;52.336;21.200;2022-11-15T01:05:20;100841.16;;;9.47;68.14
25510;BME280;13413;52.336;21.200;2022-11-15T01:08:41;100827.73;;;9.49;68.23
25510;BME280;13413;52.336;21.200;2022-11-15T01:12:01;100826.90;;;9.52;68.21
25510;BME280;13413;52.336;21.200;2022-11-15T01:15:20;100825.63;;;9.51;68.24
25510;BME280;13413;52.336;21.200;2022-11-15T01:18:41;100825.48;;;9.54;68.13
25510;BME280;13413;52.336;21.200;2022-11-15T01:22:00;100823.48;;;9.51;68.39
25510;BME280;13413;52.336;21.200;2022-11-15T01:25:20;100815.20;;;9.52;68.38
25510;BME280;13413;52.336;21.200;2022-11-15T01:28:40;100806.81;;;9.53;68.26
25510;BME280;13413;52.336;21.200;2022-11-15T01:32:01;100806.67;;;9.53;68.33
25510;BME280;13413;52.336;21.200;2022-11-15T01:35:21;100797.55;;;9.56;68.26
25510;BME280;13413;52.336;21.200;2022-11-15T01:38:41;100795.01;;;9.56;68.35
25510;BME280;13413;52.336;21.200;2022-11-15T01:42:01;100791.65;;;9.55;68.31
25510;BME280;13413;52.336;21.200;2022-11-15T01:45:20;100792.06;;;9.51;68.58
25510;BME280;13413;52.336;21.200;2022-11-15T01:48:40;100777.33;;;9.53;68.47
25510;BME280;13413;52.336;21.200;2022-11-15T01:52:02;100766.01;;;9.55;68.43
25510;BME280;13413;52.336;21.200;2022-11-15T01:55:26;100765.34;;;9.46;68.47
25510;BME280;13413;52.336;21.200;2022-11-15T01:58:47;100755.98;;;9.51;68.47
25510;BME280;13413;52.336;21.200;2022-11-15T02:02:08;100769.17;;;9.47;68.46
25510;BME280;13413;52.336;21.200;2022-11-15T02:05:28;100757.21;;;9.51;68.50
25510;BME280;13413;52.336;21.200;2022-11-15T02:08:51;100762.41;;;9.54;68.43
25510;BME280;13413;52.336;21.200;2022-11-15T02:12:11;100751.90;;;9.48;68.47
25510;BME280;13413;52.336;21.200;2022-11-15T02:15:38;100751.90;;;9.47;68.55
25510;BME280;13413;52.336;21.200;2022-11-15T02:19:08;100748.51;;;9.44;68.58
25510;BME280;13413;52.336;21.200;2022-11-15T02:22:41;100743.27;;;9.36;68.82
25510;BME280;13413;52.336;21.200;2022-11-15T02:37:20;100743.98;;;9.33;68.98
25510;BME280;13413;52.336;21.200;2022-11-15T02:40:48;100740.35;;;9.35;68.94
25510;BME280;13413;52.336;21.200;2022-11-15T02:44:15;100732.58;;;9.27;69.18
25510;BME280;13413;52.336;21.200;2022-11-15T02:47:41;100731.46;;;9.31;68.93
25510;BME280;13413;52.336;21.200;2022-11-15T02:51:02;100729.22;;;9.32;69.18
25510;BME280;13413;52.336;21.200;2022-11-15T02:54:24;100724.36;;;9.27;69.20
25510;BME280;13413;52.336;21.200;2022-11-15T02:57:51;100720.55;;;9.25;69.26
25510;BME280;13413;52.336;21.200;2022-11-15T03:01:20;100716.09;;;9.21;69.45
25510;BME280;13413;52.336;21.200;2022-11-15T03:04:47;100714.33;;;9.24;69.24
25510;BME280;13413;52.336;21.200;2022-11-15T03:08:17;100711.50;;;9.29;69.29
25510;BME280;13413;52.336;21.200;2022-11-15T03:11:41;100701.46;;;9.35;69.21
25510;BME280;13413;52.336;21.200;2022-11-15T03:15:09;100691.33;;;9.28;69.37
25510;BME280;13413;52.336;21.200;2022-11-15T03:18:34;100690.23;;;9.23;69.64
25510;BME280;13413;52.336;21.200;2022-11-15T03:21:56;100690.70;;;9.17;69.72
25510;BME280;13413;52.336;21.200;2022-11-15T03:25:21;100683.82;;;9.16;69.70
25510;BME280;13413;52.336;21.200;2022-11-15T03:28:46;100679.20;;;9.06;70.15
25510;BME280;13413;52.336;21.200;2022-11-15T03:32:09;100674.97;;;9.06;70.15
25510;BME280;13413;52.336;21.200;2022-11-15T03:35:35;100661.73;;;9.06;70.08
25510;BME280;13413;52.336;21.200;2022-11-15T03:39:00;100662.73;;;9.06;70.19
25510;BME280;13413;52.336;21.200;2022-11-15T03:42:24;100664.08;;;9.16;69.97
25510;BME280;13413;52.336;21.200;2022-11-15T03:45:50;100660.23;;;9.15;70.00
25510;BME280;13413;52.336;21.200;2022-11-15T03:49:14;100649.11;;;9.15;70.12
25510;BME280;13413;52.336;21.200;2022-11-15T03:52:36;100645.40;;;9.13;70.18
25510;BME280;13413;52.336;21.200;2022-11-15T03:55:55;100638.55;;;9.16;70.11
25510;BME280;13413;52.336;21.200;2022-11-15T03:59:15;100640.44;;;9.24;69.89
25510;BME280;13413;52.336;21.200;2022-11-15T04:02:35;100633.44;;;9.26;69.79
25510;BME280;13413;52.336;21.200;2022-11-15T04:05:55;100631.50;;;9.32;69.70
25510;BME280;13413;52.336;21.200;2022-11-15T04:09:15;100629.14;;;9.25;69.70
25510;BME280;13413;52.336;21.200;2022-11-15T04:12:36;100629.52;;;9.20;69.85
25510;BME280;13413;52.336;21.200;2022-11-15T04:15:57;100623.07;;;9.13;69.84
25510;BME280;13413;52.336;21.200;2022-11-15T04:19:17;100618.98;;;9.11;69.90
25510;BME280;13413;52.336;21.200;2022-11-15T04:22:36;100614.36;;;9.03;70.17
25510;BME280;13413;52.336;21.200;2022-11-15T04:25:58;100617.98;;;9.04;70.14
25510;BME280;13413;52.336;21.200;2022-11-15T04:29:19;100609.06;;;9.10;70.03
25510;BME280;13413;52.336;21.200;2022-11-15T04:32:39;100614.35;;;9.15;69.93
25510;BME280;13413;52.336;21.200;2022-11-15T04:35:59;100612.55;;;9.19;69.84
25510;BME280;13413;52.336;21.200;2022-11-15T04:39:18;100613.48;;;9.22;69.91
25510;BME280;13413;52.336;21.200;2022-11-15T04:42:38;100615.90;;;9.24;69.91
25510;BME280;13413;52.336;21.200;2022-11-15T04:46:00;100614.77;;;9.32;69.83
25510;BME280;13413;52.336;21.200;2022-11-15T04:49:20;100610.41;;;9.27;69.78
25510;BME280;13413;52.336;21.200;2022-11-15T04:52:41;100602.34;;;9.27;69.74
25510;BME280;13413;52.336;21.200;2022-11-15T04:56:01;100599.23;;;9.23;69.74
25510;BME280;13413;52.336;21.200;2022-11-15T04:59:21;100597.07;;;9.15;69.84
25510;BME280;13413;52.336;21.200;2022-11-15T05:02:41;100596.92;;;9.13;69.94
25510;BME280;13413;52.336;21.200;2022-11-15T05:06:01;100594.48;;;9.06;70.16
25510;BME280;13413;52.336;21.200;2022-11-15T05:09:22;100592.27;;;9.04;70.27
25510;BME280;13413;52.336;21.200;2022-11-15T05:12:41;100587.55;;;9.03;70.30
25510;BME280;13413;52.336;21.200;2022-11-15T05:16:01;100586.63;;;8.99;70.40
25510;BME280;13413;52.336;21.200;2022-11-15T05:19:21;100588.05;;;8.99;70.41
25510;BME280;13413;52.336;21.200;2022-11-15T05:22:40;100585.97;;;9.00;70.44
25510;BME280;13413;52.336;21.200;2022-11-15T05:26:01;100578.66;;;8.99;70.44
25510;BME280;13413;52.336;21.200;2022-11-15T05:29:21;100574.27;;;8.96;70.68
25510;BME280;13413;52.336;21.200;2022-11-15T05:32:40;100576.73;;;8.97;70.49
25510;BME280;13413;52.336;21.200;2022-11-15T05:36:02;100578.48;;;9.02;70.37
25510;BME280;13413;52.336;21.200;2022-11-15T05:39:24;100579.61;;;9.05;70.38
25510;BME280;13413;52.336;21.200;2022-11-15T05:42:45;100578.54;;;9.00;70.60
25510;BME280;13413;52.336;21.200;2022-11-15T05:46:05;100578.27;;;9.01;70.50
25510;BME280;13413;52.336;21.200;2022-11-15T05:49:27;100580.73;;;9.04;70.50
25510;BME280;13413;52.336;21.200;2022-11-15T05:52:48;100582.90;;;9.07;70.39
25510;BME280;13413;52.336;21.200;2022-11-15T05:56:10;100581.77;;;9.03;70.39
25510;BME280;13413;52.336;21.200;2022-11-15T05:59:31;100582.84;;;9.05;70.53
25510;BME280;13413;52.336;21.200;2022-11-15T06:02:50;100576.91;;;9.06;70.43
25510;BME280;13413;52.336;21.200;2022-11-15T06:06:10;100575.47;;;9.03;70.42
25510;BME280;13413;52.336;21.200;2022-11-15T06:09:30;100566.94;;;9.03;70.54
25510;BME280;13413;52.336;21.200;2022-11-15T06:12:57;100568.62;;;9.04;70.50
25510;BME280;13413;52.336;21.200;2022-11-15T06:16:17;100572.31;;;9.07;70.54
25510;BME280;13413;52.336;21.200;2022-11-15T06:19:37;100579.81;;;9.08;70.57
25510;BME280;13413;52.336;21.200;2022-11-15T06:22:59;100578.54;;;9.10;70.47
25510;BME280;13413;52.336;21.200;2022-11-15T06:26:19;100571.66;;;9.04;70.64
25510;BME280;13413;52.336;21.200;2022-11-15T06:29:38;100571.98;;;9.01;70.66
25510;BME280;13413;52.336;21.200;2022-11-15T06:33:03;100569.09;;;8.95;70.80
25510;BME280;13413;52.336;21.200;2022-11-15T06:39:57;100578.48;;;9.06;70.54
25510;BME280;13413;52.336;21.200;2022-11-15T06:43:17;100576.70;;;9.08;70.56
25510;BME280;13413;52.336;21.200;2022-11-15T06:46:37;100583.06;;;9.04;70.77
25510;BME280;13413;52.336;21.200;2022-11-15T06:49:56;100577.91;;;9.06;70.75
25510;BME280;13413;52.336;21.200;2022-11-15T06:53:16;100580.29;;;9.12;70.70
25510;BME280;13413;52.336;21.200;2022-11-15T06:56:36;100584.56;;;9.13;70.60
25510;BME280;13413;52.336;21.200;2022-11-15T06:59:56;100584.43;;;9.11;70.69
25510;BME280;13413;52.336;21.200;2022-11-15T07:03:15;100584.80;;;9.11;70.70
25510;BME280;13413;52.336;21.200;2022-11-15T07:06:34;100590.11;;;9.12;70.67
25510;BME280;13413;52.336;21.200;2022-11-15T07:09:54;100589.73;;;9.13;70.73
25510;BME280;13413;52.336;21.200;2022-11-15T07:13:14;100588.09;;;9.07;70.73
25510;BME280;13413;52.336;21.200;2022-11-15T07:16:37;100586.20;;;9.01;70.79
25510;BME280;13413;52.336;21.200;2022-11-15T07:19:56;100579.36;;;8.99;70.77
25510;BME280;13413;52.336;21.200;2022-11-15T07:23:15;100581.49;;;9.02;70.94
25510;BME280;13413;52.336;21.200;2022-11-15T07:30:11;100581.05;;;9.02;71.03
25510;BME280;13413;52.336;21.200;2022-11-15T07:33:30;100577.89;;;8.98;71.08
25510;BME280;13413;52.336;21.200;2022-11-15T07:36:49;100578.61;;;8.95;71.07
25510;BME280;13413;52.336;21.200;2022-11-15T07:40:11;100581.35;;;8.94;71.15
25510;BME280;13413;52.336;21.200;2022-11-15T07:43:31;100583.25;;;8.89;71.17
25510;BME280;13413;52.336;21.200;2022-11-15T07:46:51;100581.48;;;8.94;71.13
25510;BME280;13413;52.336;21.200;2022-11-15T07:50:10;100579.80;;;8.95;71.05
25510;BME280;13413;52.336;21.200;2022-11-15T07:53:30;100576.09;;;8.92;71.02
25510;BME280;13413;52.336;21.200;2022-11-15T07:56:49;100575.05;;;8.87;71.13
25510;BME280;13413;52.336;21.200;2022-11-15T08:00:10;100567.17;;;8.79;71.18
25510;BME280;13413;52.336;21.200;2022-11-15T08:03:31;100561.35;;;8.86;71.10
25510;BME280;13413;52.336;21.200;2022-11-15T08:06:51;100559.14;;;8.89;71.18
25510;BME280;13413;52.336;21.200;2022-11-15T08:10:11;100557.58;;;8.93;71.12
25510;BME280;13413;52.336;21.200;2022-11-15T08:13:30;100548.20;;;8.99;71.09
25510;BME280;13413;52.336;21.200;2022-11-15T08:16:50;100545.52;;;8.99;71.04
25510;BME280;13413;52.336;21.200;2022-11-15T08:20:11;100545.45;;;8.95;71.20
25510;BME280;13413;52.336;21.200;2022-11-15T08:23:30;100541.24;;;8.94;70.96
25510;BME280;13413;52.336;21.200;2022-11-15T08:26:50;100535.50;;;8.89;71.21
25510;BME280;13413;52.336;21.200;2022-11-15T08:30:12;100537.76;;;8.91;71.08
25510;BME280;13413;52.336;21.200;2022-11-15T08:33:35;100535.83;;;8.97;70.99
25510;BME280;13413;52.336;21.200;2022-11-15T08:36:54;100533.41;;;8.93;71.10
25510;BME280;13413;52.336;21.200;2022-11-15T08:40:15;100528.52;;;8.85;70.99
25510;BME280;13413;52.336;21.200;2022-11-15T08:43:35;100528.30;;;8.78;71.01
25510;BME280;13413;52.336;21.200;2022-11-15T08:46:54;100524.95;;;8.80;71.23
25510;BME280;13413;52.336;21.200;2022-11-15T08:50:15;100528.28;;;8.83;71.11
25510;BME280;13413;52.336;21.200;2022-11-15T08:53:36;100533.20;;;8.91;71.09
25510;BME280;13413;52.336;21.200;2022-11-15T08:56:57;100527.06;;;8.95;70.97
25510;BME280;13413;52.336;21.200;2022-11-15T09:00:18;100525.85;;;9.00;71.11
25510;BME280;13413;52.336;21.200;2022-11-15T09:03:38;100525.33;;;9.05;70.94
25510;BME280;13413;52.336;21.200;2022-11-15T09:06:59;100522.55;;;9.01;70.91
25510;BME280;13413;52.336;21.200;2022-11-15T09:10:19;100517.45;;;9.01;70.94
25510;BME280;13413;52.336;21.200;2022-11-15T09:13:38;100513.10;;;8.95;71.01
25510;BME280;13413;52.336;21.200;2022-11-15T09:16:57;100512.29;;;8.98;71.09
25510;BME280;13413;52.336;21.200;2022-11-15T09:20:18;100507.13;;;9.02;70.96
25510;BME280;13413;52.336;21.200;2022-11-15T09:23:38;100502.81;;;9.06;70.99
25510;BME280;13413;52.336;21.200;2022-11-15T09:27:04;100503.09;;;9.08;70.87
25510;BME280;13413;52.336;21.200;2022-11-15T09:30:24;100496.45;;;9.11;70.77
25510;BME280;13413;52.336;21.200;2022-11-15T09:33:45;100486.77;;;9.10;70.85
25510;BME280;13413;52.336;21.200;2022-11-15T09:37:06;100483.30;;;9.10;70.75
25510;BME280;13413;52.336;21.200;2022-11-15T09:40:25;100480.06;;;9.09;70.63
25510;BME280;13413;52.336;21.200;2022-11-15T09:43:49;100471.05;;;9.16;70.82
25510;BME280;13413;52.336;21.200;2022-11-15T09:47:38;100469.06;;;9.21;70.47
25510;BME280;13413;52.336;21.200;2022-11-15T09:54:28;100467.65;;;9.26;70.40
25510;BME280;13413;52.336;21.200;2022-11-15T09:57:55;100465.84;;;9.23;70.41
25510;BME280;13413;52.336;21.200;2022-11-15T10:01:23;100460.73;;;9.35;70.57
25510;BME280;13413;52.336;21.200;2022-11-15T10:04:52;100451.71;;;9.48;70.30
25510;BME280;13413;52.336;21.200;2022-11-15T10:11:57;100452.10;;;9.50;69.93
25510;BME280;13413;52.336;21.200;2022-11-15T10:15:18;100454.33;;;9.51;69.80
25510;BME280;13413;52.336;21.200;2022-11-15T10:18:47;100456.13;;;9.51;69.86
25510;BME280;13413;52.336;21.200;2022-11-15T10:22:24;100451.48;;;9.50;69.68
25510;BME280;13413;52.336;21.200;2022-11-15T10:25:44;100453.30;;;9.49;69.64
25510;BME280;13413;52.336;21.200;2022-11-15T10:29:04;100449.73;;;9.47;69.59
25510;BME280;13413;52.336;21.200;2022-11-15T10:32:24;100448.92;;;9.44;69.77
25510;BME280;13413;52.336;21.200;2022-11-15T10:35:44;100446.14;;;9.45;69.61
25510;BME280;13413;52.336;21.200;2022-11-15T10:39:04;100432.42;;;9.46;69.66
25510;BME280;13413;52.336;21.200;2022-11-15T10:42:30;100429.24;;;9.48;69.52
25510;BME280;13413;52.336;21.200;2022-11-15T10:45:51;100435.09;;;9.41;69.50
25510;BME280;13413;52.336;21.200;2022-11-15T10:49:18;100432.08;;;9.42;69.53
25510;BME280;13413;52.336;21.200;2022-11-15T10:52:46;100422.88;;;9.42;69.37
25510;BME280;13413;52.336;21.200;2022-11-15T10:56:08;100415.50;;;9.46;69.47
25510;BME280;13413;52.336;21.200;2022-11-15T10:59:33;100419.55;;;9.55;69.47
25510;BME280;13413;52.336;21.200;2022-11-15T11:03:00;100415.08;;;9.64;69.26
25510;BME280;13413;52.336;21.200;2022-11-15T11:06:20;100410.06;;;9.76;69.40
25510;BME280;13413;52.336;21.200;2022-11-15T11:09:40;100407.35;;;9.77;69.38
25510;BME280;13413;52.336;21.200;2022-11-15T11:13:21;100406.44;;;9.72;69.28
25510;BME280;13413;52.336;21.200;2022-11-15T11:16:48;100402.25;;;9.75;69.32
25510;BME280;13413;52.336;21.200;2022-11-15T11:20:14;100394.70;;;9.76;69.16
25510;BME280;13413;52.336;21.200;2022-11-15T11:23:48;100393.50;;;9.79;69.45
25510;BME280;13413;52.336;21.200;2022-11-15T11:27:18;100395.40;;;9.74;69.08
25510;BME280;13413;52.336;21.200;2022-11-15T11:30:47;100400.51;;;9.71;69.25
25510;BME280;13413;52.336;21.200;2022-11-15T11:34:17;100395.34;;;9.85;69.42
25510;BME280;13413;52.336;21.200;2022-11-15T11:37:45;100388.67;;;9.87;69.10
25510;BME280;13413;52.336;21.200;2022-11-15T11:41:13;100383.05;;;9.78;68.81
25510;BME280;13413;52.336;21.200;2022-11-15T11:44:47;100380.55;;;9.73;68.94
25510;BME280;13413;52.336;21.200;2022-11-15T11:48:14;100373.79;;;9.70;69.07
25510;BME280;13413;52.336;21.200;2022-11-15T11:55:11;100371.73;;;9.76;69.04
25510;BME280;13413;52.336;21.200;2022-11-15T11:58:37;100367.23;;;9.72;69.00
25510;BME280;13413;52.336;21.200;2022-11-15T12:01:58;100361.11;;;9.72;68.93
25510;BME280;13413;52.336;21.200;2022-11-15T12:08:48;100342.55;;;9.86;69.06
25510;BME280;13413;52.336;21.200;2022-11-15T12:12:13;100337.80;;;9.95;68.79
25510;BME280;13413;52.336;21.200;2022-11-15T12:15:39;100341.00;;;10.03;68.85
25510;BME280;13413;52.336;21.200;2022-11-15T12:19:03;100337.84;;;10.14;68.78
25510;BME280;13413;52.336;21.200;2022-11-15T12:26:04;100333.92;;;10.00;68.79
25510;BME280;13413;52.336;21.200;2022-11-15T12:29:46;100331.23;;;10.10;68.75
25510;BME280;13413;52.336;21.200;2022-11-15T12:33:34;100326.66;;;10.09;68.65
25510;BME280;13413;52.336;21.200;2022-11-15T12:41:24;100325.77;;;10.19;68.58
25510;BME280;13413;52.336;21.200;2022-11-15T12:45:00;100322.88;;;10.23;68.46
25510;BME280;13413;52.336;21.200;2022-11-15T12:52:16;100323.57;;;10.29;68.26
25510;BME280;13413;52.336;21.200;2022-11-15T12:55:39;100313.86;;;10.29;68.25
25510;BME280;13413;52.336;21.200;2022-11-15T12:59:08;100318.88;;;10.21;68.12
25510;BME280;13413;52.336;21.200;2022-11-15T13:02:29;100314.59;;;10.04;68.20
25510;BME280;13413;52.336;21.200;2022-11-15T13:06:05;100319.75;;;9.99;68.36
25510;BME280;13413;52.336;21.200;2022-11-15T13:09:53;100317.54;;;9.95;68.47
25510;BME280;13413;52.336;21.200;2022-11-15T13:13:43;100310.35;;;9.94;68.46
25510;BME280;13413;52.336;21.200;2022-11-15T13:17:08;100311.16;;;9.94;68.40
25510;BME280;13413;52.336;21.200;2022-11-15T13:20:50;100311.21;;;9.96;68.55
25510;BME280;13413;52.336;21.200;2022-11-15T13:24:18;100310.83;;;10.05;68.47
25510;BME280;13413;52.336;21.200;2022-11-15T13:27:37;100300.63;;;10.18;68.37
25510;BME280;13413;52.336;21.200;2022-11-15T13:31:00;100304.66;;;10.19;68.26
25510;BME280;13413;52.336;21.200;2022-11-15T13:34:28;100301.54;;;10.16;68.31
25510;BME280;13413;52.336;21.200;2022-11-15T13:37:50;100300.70;;;10.14;68.25
25510;BME280;13413;52.336;21.200;2022-11-15T13:41:20;100301.73;;;10.12;68.15
25510;BME280;13413;52.336;21.200;2022-11-15T13:44:56;100293.95;;;10.20;68.37
25510;BME280;13413;52.336;21.200;2022-11-15T13:48:16;100285.13;;;10.24;68.06
25510;BME280;13413;52.336;21.200;2022-11-15T13:51:42;100280.23;;;10.15;68.02
25510;BME280;13413;52.336;21.200;2022-11-15T13:55:00;100274.59;;;10.09;68.20
25510;BME280;13413;52.336;21.200;2022-11-15T13:58:22;100273.44;;;10.16;68.38
25510;BME280;13413;52.336;21.200;2022-11-15T14:01:56;100280.27;;;10.23;68.13
25510;BME280;13413;52.336;21.200;2022-11-15T14:05:19;100278.09;;;10.22;68.14
25510;BME280;13413;52.336;21.200;2022-11-15T14:08:42;100283.31;;;10.16;68.11
25510;BME280;13413;52.336;21.200;2022-11-15T14:12:29;100276.79;;;10.15;67.81
25510;BME280;13413;52.336;21.200;2022-11-15T14:15:49;100275.86;;;10.16;68.05
25510;BME280;13413;52.336;21.200;2022-11-15T14:19:12;100276.52;;;10.22;68.10
25510;BME280;13413;52.336;21.200;2022-11-15T14:22:33;100271.36;;;10.27;67.99
25510;BME280;13413;52.336;21.200;2022-11-15T14:25:56;100267.83;;;10.28;67.75
25510;BME280;13413;52.336;21.200;2022-11-15T14:29:27;100268.59;;;10.31;67.82
25510;BME280;13413;52.336;21.200;2022-11-15T14:32:47;100260.95;;;10.33;67.91
25510;BME280;13413;52.336;21.200;2022-11-15T14:36:11;100260.34;;;10.32;67.76
25510;BME280;13413;52.336;21.200;2022-11-15T14:39:32;100257.27;;;10.32;67.78
25510;BME280;13413;52.336;21.200;2022-11-15T14:42:52;100257.67;;;10.30;67.58
25510;BME280;13413;52.336;21.200;2022-11-15T14:46:12;100255.94;;;10.29;67.74
25510;BME280;13413;52.336;21.200;2022-11-15T14:49:32;100257.36;;;10.29;67.67
25510;BME280;13413;52.336;21.200;2022-11-15T14:52:54;100256.79;;;10.26;67.64
25510;BME280;13413;52.336;21.200;2022-11-15T14:56:14;100262.72;;;10.25;67.50
25510;BME280;13413;52.336;21.200;2022-11-15T14:59:37;100259.00;;;10.22;67.60
25510;BME280;13413;52.336;21.200;2022-11-15T15:02:57;100255.75;;;10.21;67.54
25510;BME280;13413;52.336;21.200;2022-11-15T15:06:16;100259.52;;;10.19;67.73
25510;BME280;13413;52.336;21.200;2022-11-15T15:09:37;100255.29;;;10.22;67.70
25510;BME280;13413;52.336;21.200;2022-11-15T15:12:56;100251.27;;;10.23;67.78
25510;BME280;13413;52.336;21.200;2022-11-15T15:16:16;100243.23;;;10.27;67.69
25510;BME280;13413;52.336;21.200;2022-11-15T15:19:36;100242.52;;;10.27;67.71
25510;BME280;13413;52.336;21.200;2022-11-15T15:23:11;100239.34;;;10.28;67.78
25510;BME280;13413;52.336;21.200;2022-11-15T15:26:33;100244.92;;;10.26;67.71
25510;BME280;13413;52.336;21.200;2022-11-15T15:29:53;100245.36;;;10.26;67.72
25510;BME280;13413;52.336;21.200;2022-11-15T15:33:12;100250.31;;;10.24;67.67
25510;BME280;13413;52.336;21.200;2022-11-15T15:36:32;100242.95;;;10.18;67.75
25510;BME280;13413;52.336;21.200;2022-11-15T15:39:51;100240.39;;;10.19;67.71
25510;BME280;13413;52.336;21.200;2022-11-15T15:43:11;100237.42;;;10.17;67.67
25510;BME280;13413;52.336;21.200;2022-11-15T15:46:33;100233.52;;;10.08;67.43
25510;BME280;13413;52.336;21.200;2022-11-15T15:49:53;100236.52;;;10.00;67.43
25510;BME280;13413;52.336;21.200;2022-11-15T15:53:14;100238.26;;;9.99;67.68
25510;BME280;13413;52.336;21.200;2022-11-15T15:56:36;100233.07;;;10.03;67.65
25510;BME280;13413;52.336;21.200;2022-11-15T15:59:56;100229.02;;;10.06;67.63
25510;BME280;13413;52.336;21.200;2022-11-15T16:03:16;100228.83;;;10.06;67.51
25510;BME280;13413;52.336;21.200;2022-11-15T16:06:38;100228.34;;;10.07;67.46
25510;BME280;13413;52.336;21.200;2022-11-15T16:13:31;100224.66;;;10.10;67.45
25510;BME280;13413;52.336;21.200;2022-11-15T16:16:51;100222.52;;;10.09;67.24
25510;BME280;13413;52.336;21.200;2022-11-15T16:20:22;100223.93;;;10.04;67.34
25510;BME280;13413;52.336;21.200;2022-11-15T16:23:42;100224.50;;;9.96;67.35
25510;BME280;13413;52.336;21.200;2022-11-15T16:27:01;100222.84;;;9.92;67.52
25510;BME280;13413;52.336;21.200;2022-11-15T16:30:24;100222.92;;;9.82;67.55
25510;BME280;13413;52.336;21.200;2022-11-15T16:33:44;100228.25;;;9.77;67.44
25510;BME280;13413;52.336;21.200;2022-11-15T16:37:08;100228.35;;;9.70;67.57
25510;BME280;13413;52.336;21.200;2022-11-15T16:40:30;100224.62;;;9.70;67.49
25510;BME280;13413;52.336;21.200;2022-11-15T16:43:51;100223.20;;;9.77;67.64
25510;BME280;13413;52.336;21.200;2022-11-15T16:47:17;100218.70;;;9.78;67.62
25510;BME280;13413;52.336;21.200;2022-11-15T16:50:36;100217.02;;;9.73;67.48
25510;BME280;13413;52.336;21.200;2022-11-15T16:53:56;100213.73;;;9.74;67.50
25510;BME280;13413;52.336;21.200;2022-11-15T16:57:16;100214.86;;;9.72;67.43
25510;BME280;13413;52.336;21.200;2022-11-15T17:00:38;100215.15;;;9.62;67.36
25510;BME280;13413;52.336;21.200;2022-11-15T17:04:00;100219.85;;;9.56;67.47
25510;BME280;13413;52.336;21.200;2022-11-15T17:07:21;100225.31;;;9.57;67.56
25510;BME280;13413;52.336;21.200;2022-11-15T17:10:42;100218.14;;;9.59;67.66
25510;BME280;13413;52.336;21.200;2022-11-15T17:14:02;100219.32;;;9.64;67.71
25510;BME280;13413;52.336;21.200;2022-11-15T17:17:24;100216.85;;;9.67;67.68
25510;BME280;13413;52.336;21.200;2022-11-15T17:20:44;100212.23;;;9.61;67.63
25510;BME280;13413;52.336;21.200;2022-11-15T17:24:05;100213.33;;;9.55;67.54
25510;BME280;13413;52.336;21.200;2022-11-15T17:27:26;100214.55;;;9.47;67.67
25510;BME280;13413;52.336;21.200;2022-11-15T17:30:46;100214.61;;;9.48;67.88
25510;BME280;13413;52.336;21.200;2022-11-15T17:34:07;100214.39;;;9.55;67.77
25510;BME280;13413;52.336;21.200;2022-11-15T17:37:26;100218.77;;;9.52;67.81
25510;BME280;13413;52.336;21.200;2022-11-15T17:40:46;100220.41;;;9.48;67.97
25510;BME280;13413;52.336;21.200;2022-11-15T17:44:05;100221.75;;;9.43;67.59
25510;BME280;13413;52.336;21.200;2022-11-15T17:47:25;100221.55;;;9.41;67.74
25510;BME280;13413;52.336;21.200;2022-11-15T17:50:44;100222.20;;;9.36;67.77
25510;BME280;13413;52.336;21.200;2022-11-15T17:54:12;100220.06;;;9.33;67.87
25510;BME280;13413;52.336;21.200;2022-11-15T17:57:31;100216.67;;;9.32;67.94
25510;BME280;13413;52.336;21.200;2022-11-15T18:00:51;100211.19;;;9.31;67.76
25510;BME280;13413;52.336;21.200;2022-11-15T18:04:12;100202.36;;;9.23;67.85
25510;BME280;13413;52.336;21.200;2022-11-15T18:07:33;100202.58;;;9.24;67.83
25510;BME280;13413;52.336;21.200;2022-11-15T18:11:02;100195.25;;;9.21;67.90
25510;BME280;13413;52.336;21.200;2022-11-15T18:14:21;100185.36;;;9.24;68.00
25510;BME280;13413;52.336;21.200;2022-11-15T18:17:40;100184.80;;;9.21;67.94
25510;BME280;13413;52.336;21.200;2022-11-15T18:21:04;100188.21;;;9.21;67.84
25510;BME280;13413;52.336;21.200;2022-11-15T18:24:28;100185.46;;;9.23;67.93
25510;BME280;13413;52.336;21.200;2022-11-15T18:27:47;100177.35;;;9.26;67.93